Time;durP1;ratioP1;P1;durP2;ratioP2;P2;SDS_P1;SDS_P2;PMS_P1;PMS_P2;Temp;Humidity;BMP_temperature;BMP_pressure;BME280_temperature;BME280_humidity;BME280_pressure;Samples;Min_cycle;Max_cycle;Signal;HPM_P1;HPM_P2
2022/07/07 00:00:00;;;;;;;11.68;9.07;;;;;;;25.08;55.28;99014.84;5052115;28;20064;-68
2022/07/07 00:02:26;;;;;;;14.98;9.40;;;;;;;25.08;55.27;99014.84;5068217;28;20120;-66
2022/07/07 00:04:51;;;;;;;10.88;9.55;;;;;;;25.10;55.22;99016.28;5072019;28;20036;-67
2022/07/07 00:07:17;;;;;;;16.05;9.60;;;;;;;25.11;55.45;99011.69;5071496;28;20044;-67
2022/07/07 00:09:43;;;;;;;11.60;8.57;;;;;;;25.09;55.24;99009.22;5071800;28;20115;-65
2022/07/07 00:12:09;;;;;;;13.30;8.98;;;;;;;25.08;55.42;99009.44;5072074;28;20474;-65
2022/07/07 00:14:34;;;;;;;10.40;9.15;;;;;;;25.08;55.17;99009.44;5071757;28;20032;-65
2022/07/07 00:17:00;;;;;;;11.45;9.18;;;;;;;25.07;55.21;99005.09;5070555;28;20119;-65
2022/07/07 00:19:26;;;;;;;14.52;9.57;;;;;;;25.06;55.07;99000.75;5071714;28;20060;-66
2022/07/07 00:21:52;;;;;;;11.25;8.60;;;;;;;25.07;54.98;99005.91;5071767;28;20032;-66
2022/07/07 00:24:18;;;;;;;11.23;9.23;;;;;;;25.09;54.99;99005.69;5075758;28;20518;-66
2022/07/07 00:26:44;;;;;;;11.50;9.13;;;;;;;25.08;55.34;99004.88;5075949;28;20043;-65
2022/07/07 00:29:09;;;;;;;9.55;8.65;;;;;;;25.07;55.32;99005.09;5074803;28;20040;-66
2022/07/07 00:31:35;;;;;;;10.15;8.82;;;;;;;25.11;55.18;98999.00;5075320;28;20043;-67
2022/07/07 00:34:01;;;;;;;11.70;9.82;;;;;;;25.13;54.91;99001.47;5073531;28;20036;-65
2022/07/07 00:36:26;;;;;;;12.05;8.95;;;;;;;25.13;54.86;99005.00;5075109;28;20036;-66
2022/07/07 00:38:52;;;;;;;9.20;8.18;;;;;;;25.17;54.91;99007.25;5075584;28;20033;-65
2022/07/07 00:41:17;;;;;;;9.18;8.18;;;;;;;25.19;54.61;99005.13;5074142;28;20101;-67
2022/07/07 00:43:43;;;;;;;9.10;8.20;;;;;;;25.22;54.51;99007.38;5075796;28;20040;-65
2022/07/07 00:46:10;;;;;;;9.48;8.35;;;;;;;25.21;54.15;99001.16;5074784;28;20521;-67
2022/07/07 00:48:37;;;;;;;8.52;7.63;;;;;;;25.21;54.19;99006.56;5073433;28;20028;-67
2022/07/07 00:51:09;;;;;;;10.30;8.50;;;;;;;25.22;54.42;98993.84;5075364;28;20122;-66
2022/07/07 00:53:34;;;;;;;12.95;8.40;;;;;;;25.21;54.17;98998.44;5055599;28;20119;-66
2022/07/07 00:56:00;;;;;;;10.95;8.63;;;;;;;25.20;54.19;98999.50;5070162;28;20064;-66
2022/07/07 00:58:26;;;;;;;13.75;8.35;;;;;;;25.21;53.96;98994.91;5064921;28;20044;-65
2022/07/07 01:00:52;;;;;;;8.63;7.68;;;;;;;25.23;54.02;99000.91;5060153;28;20032;-66
2022/07/07 01:03:17;;;;;;;10.48;7.85;;;;;;;25.21;53.92;99001.16;5074945;28;20040;-66
2022/07/07 01:05:46;;;;;;;10.30;7.57;;;;;;;25.24;53.77;98999.88;5074859;28;20041;-65
2022/07/07 01:08:15;;;;;;;8.80;7.85;;;;;;;25.22;53.83;98997.38;5074396;28;20056;-66
2022/07/07 01:10:43;;;;;;;10.57;7.82;;;;;;;25.25;53.53;99005.03;5074282;28;20483;-65
2022/07/07 01:13:09;;;;;;;13.23;8.50;;;;;;;25.26;53.56;99003.97;5071521;28;20032;-67
2022/07/07 01:15:35;;;;;;;10.82;7.50;;;;;;;25.28;53.68;99001.88;5072889;28;20409;-71
2022/07/07 01:18:00;;;;;;;9.18;7.45;;;;;;;25.25;53.59;99002.34;5074308;28;20135;-67
2022/07/07 01:20:26;;;;;;;11.02;8.32;;;;;;;25.24;53.85;99006.09;5074603;28;20064;-68
2022/07/07 01:22:56;;;;;;;9.93;7.60;;;;;;;25.26;53.62;99005.88;5074521;28;20502;-67
2022/07/07 01:25:22;;;;;;;12.18;7.65;;;;;;;25.24;53.56;99006.09;5074588;28;20063;-67
2022/07/07 01:27:48;;;;;;;10.10;7.53;;;;;;;25.22;53.72;99008.19;5072429;28;20028;-66
2022/07/07 01:30:13;;;;;;;8.38;6.93;;;;;;;25.21;53.38;99012.00;5074758;28;20539;-67
2022/07/07 01:32:39;;;;;;;8.70;6.57;;;;;;;25.22;53.84;99005.50;5074659;28;20412;-67
2022/07/07 01:35:06;;;;;;;8.60;7.57;;;;;;;25.23;53.57;99003.63;5073681;28;20028;-67
2022/07/07 01:37:33;;;;;;;12.85;8.02;;;;;;;25.24;53.72;99005.28;5074166;28;20073;-68
2022/07/07 01:39:58;;;;;;;9.07;7.97;;;;;;;25.23;53.78;98999.03;5074585;28;20131;-68
2022/07/07 01:42:24;;;;;;;9.20;7.97;;;;;;;25.22;53.47;99002.78;5072322;28;20116;-68
2022/07/07 01:44:51;;;;;;;8.95;7.85;;;;;;;25.23;53.77;99000.91;5074448;28;20040;-67
2022/07/07 01:47:18;;;;;;;9.45;7.65;;;;;;;25.24;53.76;98997.97;5073982;28;20040;-68
2022/07/07 01:49:43;;;;;;;11.93;8.43;;;;;;;25.23;53.70;99003.63;5074372;28;20032;-68
2022/07/07 01:52:09;;;;;;;7.95;7.15;;;;;;;25.24;53.58;98994.44;5074191;28;20158;-68
2022/07/07 01:54:36;;;;;;;8.90;7.97;;;;;;;25.24;53.66;98997.97;5073941;28;20036;-68
2022/07/07 01:57:02;;;;;;;13.13;8.68;;;;;;;25.25;53.14;98999.63;5073047;28;20403;-66
2022/07/07 01:59:28;;;;;;;8.50;7.70;;;;;;;25.31;53.56;98994.34;5073271;28;20044;-68
2022/07/07 02:01:54;;;;;;;7.65;6.95;;;;;;;25.28;53.33;98988.34;5074042;28;20032;-67
2022/07/07 02:04:19;;;;;;;8.65;7.80;;;;;;;25.34;53.31;99000.13;5074099;28;20402;-68
2022/07/07 02:06:45;;;;;;;7.28;6.55;;;;;;;25.35;53.19;99000.97;5073866;28;20484;-67
2022/07/07 02:09:10;;;;;;;9.45;6.90;;;;;;;25.37;52.95;98996.13;5074022;28;20033;-67
2022/07/07 02:11:36;;;;;;;8.75;7.32;;;;;;;25.39;53.06;98991.31;5073774;28;20381;-68
2022/07/07 02:14:03;;;;;;;11.05;8.13;;;;;;;25.40;53.07;98996.50;5071009;28;20032;-67
2022/07/07 02:16:29;;;;;;;7.90;7.10;;;;;;;25.39;53.28;99002.97;5073910;28;20472;-67
2022/07/07 02:18:57;;;;;;;10.15;7.20;;;;;;;25.40;53.25;99009.19;5073229;28;20147;-67
2022/07/07 02:21:23;;;;;;;9.73;7.70;;;;;;;25.39;53.20;99002.13;5073387;28;20032;-67
2022/07/07 02:23:50;;;;;;;9.63;7.65;;;;;;;25.41;53.16;99000.03;5073725;28;20445;-67
2022/07/07 02:26:16;;;;;;;8.38;7.47;;;;;;;25.39;53.02;99000.25;5073517;28;20036;-67
2022/07/07 02:28:42;;;;;;;9.27;7.57;;;;;;;25.36;53.23;98994.50;5073759;28;20090;-66
2022/07/07 02:31:08;;;;;;;9.60;8.38;;;;;;;25.38;53.25;98997.78;5073067;28;20545;-66
2022/07/07 02:33:35;;;;;;;8.68;7.05;;;;;;;25.42;53.06;98999.00;5070796;28;20032;-66
2022/07/07 02:36:03;;;;;;;10.27;7.72;;;;;;;25.45;53.01;98993.13;5073384;28;20028;-67
2022/07/07 02:38:29;;;;;;;10.93;7.45;;;;;;;25.48;52.90;98997.25;5073387;28;20058;-67
2022/07/07 02:40:54;;;;;;;7.90;6.32;;;;;;;25.54;52.59;99010.69;5073005;28;20622;-67
2022/07/07 02:43:20;;;;;;;11.52;7.22;;;;;;;25.62;52.45;99008.72;5073280;28;20502;-67
2022/07/07 02:45:48;;;;;;;10.68;7.55;;;;;;;25.66;52.30;99015.31;5073279;28;20036;-67
2022/07/07 02:48:16;;;;;;;9.05;7.13;;;;;;;25.70;52.21;99008.34;5072884;28;20082;-67
2022/07/07 02:50:42;;;;;;;8.35;6.97;;;;;;;25.73;51.98;99014.13;5070235;28;20028;-67
2022/07/07 02:53:09;;;;;;;9.95;7.10;;;;;;;25.79;51.79;99014.25;5072618;28;20388;-68
2022/07/07 02:55:34;;;;;;;8.48;7.68;;;;;;;25.81;51.55;99014.84;5073199;28;20109;-67
2022/07/07 02:58:01;;;;;;;10.93;7.93;;;;;;;25.87;51.46;99019.34;5073088;28;20032;-66
2022/07/07 03:00:28;;;;;;;9.63;6.40;;;;;;;25.95;51.20;99031.72;5071085;28;20121;-67
2022/07/07 03:02:54;;;;;;;8.77;7.28;;;;;;;26.00;51.15;99023.69;5072722;28;20613;-68
2022/07/07 03:05:21;;;;;;;10.27;7.30;;;;;;;26.07;50.89;99026.28;5072723;28;20037;-67
2022/07/07 03:07:47;;;;;;;7.93;7.10;;;;;;;26.15;50.76;99026.81;5073087;28;20502;-67
2022/07/07 03:10:12;;;;;;;10.52;7.43;;;;;;;26.22;50.55;99020.44;5070791;28;20028;-68
2022/07/07 03:12:38;;;;;;;9.13;6.93;;;;;;;26.28;50.18;99022.19;5072582;28;20676;-67
2022/07/07 03:15:04;;;;;;;13.18;7.40;;;;;;;26.37;50.29;99018.06;5072621;28;20036;-67
2022/07/07 03:17:29;;;;;;;10.27;7.47;;;;;;;26.50;50.04;99017.81;5072754;28;20043;-67
2022/07/07 03:19:55;;;;;;;7.35;6.47;;;;;;;26.66;49.65;99020.84;5072382;28;20099;-67
2022/07/07 03:22:20;;;;;;;12.73;6.93;;;;;;;26.86;48.97;99025.91;5070430;28;20048;-67
2022/07/07 03:24:46;;;;;;;10.60;7.35;;;;;;;27.09;48.48;99021.44;5072750;28;20062;-67
2022/07/07 03:27:11;;;;;;;7.72;6.45;;;;;;;27.27;48.37;99042.16;5072446;28;20416;-67
2022/07/07 03:29:37;;;;;;;8.77;7.03;;;;;;;27.36;47.98;99034.44;5072761;28;20115;-67
2022/07/07 03:32:03;;;;;;;7.15;6.45;;;;;;;27.47;47.76;99030.88;5070289;28;20046;-67
2022/07/07 03:34:28;;;;;;;10.98;6.65;;;;;;;27.57;47.55;99024.81;5072420;28;20480;-67
2022/07/07 03:36:54;;;;;;;10.05;6.38;;;;;;;27.62;47.19;99027.59;5072592;28;20031;-67
2022/07/07 03:39:19;;;;;;;10.25;6.75;;;;;;;27.60;47.38;99021.56;5072622;28;20032;-67
2022/07/07 03:41:45;;;;;;;10.95;7.22;;;;;;;27.57;47.83;99022.09;5070947;28;20499;-67
2022/07/07 03:44:10;;;;;;;8.13;7.32;;;;;;;27.55;47.55;99032.38;5072561;28;20403;-67
2022/07/07 03:46:36;;;;;;;9.73;7.57;;;;;;;27.51;47.52;99021.16;5072777;28;20054;-67
2022/07/07 03:49:01;;;;;;;8.48;6.55;;;;;;;27.47;47.72;99030.03;5072609;28;20040;-67
2022/07/07 03:51:27;;;;;;;7.82;7.03;;;;;;;27.42;47.82;99034.28;5070537;28;20039;-66
2022/07/07 03:53:52;;;;;;;9.55;7.15;;;;;;;27.38;48.01;99033.13;5072093;28;20040;-67
2022/07/07 03:56:18;;;;;;;17.08;7.45;;;;;;;27.34;47.97;99026.53;5072405;28;20028;-67
2022/07/07 03:58:43;;;;;;;10.32;6.72;;;;;;;27.34;48.41;99034.69;5076249;28;20422;-67
2022/07/07 04:01:09;;;;;;;11.35;7.95;;;;;;;27.38;48.46;99026.88;5076222;28;20488;-67
2022/07/07 04:03:34;;;;;;;7.75;6.95;;;;;;;27.44;48.30;99025.06;5074584;28;20059;-67
2022/07/07 04:06:00;;;;;;;8.18;7.03;;;;;;;27.40;48.38;99016.59;5076297;28;20068;-67
2022/07/07 04:08:25;;;;;;;9.30;7.22;;;;;;;27.44;48.67;99016.91;5075973;28;20043;-69
2022/07/07 04:10:51;;;;;;;8.13;7.15;;;;;;;27.42;48.74;99012.53;5076299;28;20443;-67
2022/07/07 04:13:16;;;;;;;9.38;7.70;;;;;;;27.35;49.40;99025.47;5057595;28;20039;-67
2022/07/07 04:15:42;;;;;;;8.68;7.63;;;;;;;27.33;49.76;99030.31;5056400;28;20041;-67
2022/07/07 04:18:07;;;;;;;9.43;7.63;;;;;;;27.31;49.57;99023.50;5055605;28;20139;-68
2022/07/07 04:20:33;;;;;;;12.55;7.72;;;;;;;27.32;49.69;99027.84;5056050;28;20037;-68
2022/07/07 04:22:58;;;;;;;9.68;7.35;;;;;;;27.33;49.62;99018.66;5058916;28;20389;-67
2022/07/07 04:25:24;;;;;;;10.40;7.43;;;;;;;27.40;49.57;99020.13;5055983;28;20401;-68
2022/07/07 04:27:49;;;;;;;11.05;7.80;;;;;;;27.45;49.37;99016.72;5055204;28;20454;-68
2022/07/07 04:30:15;;;;;;;10.60;7.80;;;;;;;27.49;50.12;99022.47;5055821;28;20037;-68
2022/07/07 04:32:41;;;;;;;7.88;7.07;;;;;;;27.50;49.97;99021.41;5057262;28;20040;-67
2022/07/07 04:35:07;;;;;;;12.05;8.50;;;;;;;27.57;49.87;99019.38;5074281;28;20044;-67
2022/07/07 04:37:33;;;;;;;9.73;8.02;;;;;;;27.64;49.54;99017.31;5075544;28;20033;-67
2022/07/07 04:39:58;;;;;;;10.23;7.57;;;;;;;27.77;49.38;99020.75;5075676;28;20043;-68
2022/07/07 04:42:24;;;;;;;8.68;7.60;;;;;;;27.85;49.40;99017.66;5075825;28;20036;-67
2022/07/07 04:44:49;;;;;;;10.88;9.88;;;;;;;27.87;50.01;99016.31;5073385;28;20070;-67
2022/07/07 04:47:15;;;;;;;16.35;8.88;;;;;;;27.90;49.74;99012.28;5075397;28;20036;-67
2022/07/07 04:49:40;;;;;;;9.48;8.48;;;;;;;27.91;49.82;99003.03;5075387;28;20040;-67
2022/07/07 04:52:06;;;;;;;8.38;7.57;;;;;;;27.99;49.63;99012.69;5075309;28;20040;-66
2022/07/07 04:54:31;;;;;;;15.88;8.50;;;;;;;27.98;49.54;99003.72;5073473;28;20403;-67
2022/07/07 04:56:57;;;;;;;10.93;7.47;;;;;;;27.92;49.82;99006.59;5075206;28;20028;-67
2022/07/07 04:59:22;;;;;;;11.73;9.30;;;;;;;27.89;50.07;99005.19;5074995;28;20043;-68
2022/07/07 05:01:48;;;;;;;10.50;7.60;;;;;;;27.99;49.53;99005.34;5075145;28;20047;-68
2022/07/07 05:04:13;;;;;;;13.75;8.10;;;;;;;28.09;49.38;99004.69;5073191;28;20109;-68
2022/07/07 05:06:39;;;;;;;9.05;7.95;;;;;;;28.32;49.08;98998.22;5074921;28;20041;-68
2022/07/07 05:09:04;;;;;;;9.80;8.50;;;;;;;28.66;48.25;99001.91;5073880;28;20094;-68
2022/07/07 05:11:30;;;;;;;11.05;7.65;;;;;;;28.93;47.14;99010.97;5074724;28;20036;-68
2022/07/07 05:13:55;;;;;;;11.90;7.90;;;;;;;29.17;47.16;99005.25;5074667;28;20035;-67
2022/07/07 05:16:21;;;;;;;10.75;7.88;;;;;;;29.42;46.57;99009.34;5072753;28;20030;-68
2022/07/07 05:18:46;;;;;;;9.20;7.65;;;;;;;29.73;45.47;99006.03;5074797;28;20512;-68
2022/07/07 05:21:12;;;;;;;9.90;7.55;;;;;;;29.97;45.11;99006.50;5074899;28;20039;-68
2022/07/07 05:23:37;;;;;;;7.32;6.57;;;;;;;30.07;44.28;99009.31;5074588;28;20028;-68
2022/07/07 05:26:03;;;;;;;8.90;7.30;;;;;;;30.26;43.77;99008.88;5072875;28;20090;-68
2022/07/07 05:28:30;;;;;;;11.07;7.10;;;;;;;30.42;43.36;99010.59;5074755;28;20040;-67
2022/07/07 05:30:56;;;;;;;11.40;7.72;;;;;;;30.22;43.86;99002.31;5074405;28;20062;-68
2022/07/07 05:33:21;;;;;;;7.45;6.75;;;;;;;29.88;44.01;98999.88;5074376;28;20033;-67
2022/07/07 05:35:47;;;;;;;7.72;6.93;;;;;;;29.60;44.75;99001.84;5073358;28;20032;-68
2022/07/07 05:38:12;;;;;;;11.88;7.18;;;;;;;29.46;45.18;99005.00;5074247;28;20488;-68
2022/07/07 05:40:38;;;;;;;8.93;6.95;;;;;;;29.44;45.25;99007.16;5074283;28;20041;-67
2022/07/07 05:43:03;;;;;;;12.27;7.10;;;;;;;29.45;45.23;99002.53;5074253;28;20064;-67
2022/07/07 05:45:29;;;;;;;9.30;6.75;;;;;;;29.40;44.82;99006.03;5072457;28;20040;-66
2022/07/07 05:47:55;;;;;;;8.35;5.82;;;;;;;29.40;44.67;99011.50;5073956;28;20029;-67
2022/07/07 05:50:20;;;;;;;7.05;6.35;;;;;;;29.45;44.58;99003.38;5074632;28;20036;-67
2022/07/07 05:52:46;;;;;;;7.38;6.00;;;;;;;29.61;45.32;98998.06;5074292;28;20115;-68
2022/07/07 05:55:11;;;;;;;9.25;6.60;;;;;;;29.70;44.96;99004.66;5074260;28;20032;-68
2022/07/07 05:57:37;;;;;;;7.53;6.35;;;;;;;29.76;44.53;98992.72;5071926;28;20397;-68
2022/07/07 06:00:03;;;;;;;6.75;6.00;;;;;;;29.80;43.99;98999.28;5074077;28;20433;-68
2022/07/07 06:02:29;;;;;;;8.02;6.15;;;;;;;29.90;43.81;98984.09;5074092;28;20036;-68
2022/07/07 06:04:54;;;;;;;7.68;6.00;;;;;;;29.97;43.31;98992.88;5074117;28;20523;-67
2022/07/07 06:07:20;;;;;;;8.82;6.32;;;;;;;29.98;43.46;98992.63;5071835;28;20407;-67
2022/07/07 06:09:45;;;;;;;11.52;6.68;;;;;;;29.98;43.38;98995.38;5074279;28;20462;-68
2022/07/07 06:12:11;;;;;;;7.82;7.03;;;;;;;30.00;43.23;98997.81;5073856;28;20032;-67
2022/07/07 06:14:36;;;;;;;10.50;6.97;;;;;;;30.02;43.22;98989.34;5073831;28;20512;-68
2022/07/07 06:17:02;;;;;;;8.63;6.60;;;;;;;30.00;43.46;98986.91;5071252;28;20408;-68
2022/07/07 06:19:27;;;;;;;10.95;7.03;;;;;;;29.99;44.07;98996.16;5073375;28;20512;-68
2022/07/07 06:21:53;;;;;;;7.43;6.45;;;;;;;29.95;44.10;98992.31;5073357;28;20036;-68
2022/07/07 06:24:18;;;;;;;11.93;7.05;;;;;;;29.89;43.95;98985.97;5073524;28;20114;-68
2022/07/07 06:26:44;;;;;;;8.50;6.78;;;;;;;29.81;43.70;98983.75;5072955;28;20049;-67
2022/07/07 06:29:10;;;;;;;8.90;6.57;;;;;;;29.69;44.26;98987.50;5072133;28;20044;-68
2022/07/07 06:31:36;;;;;;;9.60;6.85;;;;;;;29.54;44.68;98980.00;5073284;28;20042;-68
2022/07/07 06:34:01;;;;;;;7.05;6.20;;;;;;;29.42;44.89;98978.50;5073399;28;20036;-67
2022/07/07 06:36:28;;;;;;;9.45;6.97;;;;;;;29.33;45.43;98978.16;5073042;28;20063;-68
2022/07/07 06:38:53;;;;;;;7.15;6.45;;;;;;;29.22;45.31;98978.03;5071552;28;20176;-68
2022/07/07 06:41:23;;;;;;;8.68;6.45;;;;;;;29.19;45.56;98991.38;5073287;28;20044;-68
2022/07/07 06:43:48;;;;;;;7.75;5.60;;;;;;;29.14;45.27;98983.97;5073068;28;20039;-68
2022/07/07 06:46:14;;;;;;;9.57;5.15;;;;;;;29.10;45.55;98985.56;5073120;28;20048;-68
2022/07/07 06:48:39;;;;;;;10.73;7.38;;;;;;;29.06;45.26;98989.88;5070939;28;20032;-68
2022/07/07 06:51:04;;;;;;;10.60;6.93;;;;;;;29.04;45.67;98995.59;5073168;28;20040;-68
2022/07/07 06:53:30;;;;;;;9.15;6.32;;;;;;;29.02;45.88;98988.75;5072816;28;20032;-68
2022/07/07 06:55:55;;;;;;;7.90;7.10;;;;;;;28.99;46.47;98989.25;5073065;28;20536;-68
2022/07/07 06:58:21;;;;;;;8.63;7.10;;;;;;;28.99;46.85;98990.06;5070738;28;20450;-67
2022/07/07 07:00:46;;;;;;;9.18;6.90;;;;;;;28.99;46.85;98989.25;5073358;28;20032;-68
2022/07/07 07:03:12;;;;;;;9.68;6.85;;;;;;;28.99;46.71;98987.34;5069439;28;20028;-66
2022/07/07 07:05:37;;;;;;;9.02;6.57;;;;;;;28.99;46.80;98975.66;5068013;28;20038;-66
2022/07/07 07:08:03;;;;;;;9.18;6.22;;;;;;;28.97;46.78;98984.06;5070768;28;20075;-68
2022/07/07 07:10:29;;;;;;;10.85;6.82;;;;;;;28.93;46.61;98978.31;5068175;28;20032;-66
2022/07/07 07:12:54;;;;;;;13.52;7.13;;;;;;;28.93;46.34;98982.94;5071096;28;20058;-67
2022/07/07 07:15:20;;;;;;;10.73;6.30;;;;;;;28.91;46.52;98980.47;5069077;28;20075;-67
2022/07/07 07:17:45;;;;;;;9.77;7.00;;;;;;;28.90;46.37;98978.81;5068339;28;20547;-66
2022/07/07 07:20:12;;;;;;;9.93;7.53;;;;;;;28.88;46.41;98980.16;5070624;28;20032;-66
2022/07/07 07:22:39;;;;;;;10.98;6.63;;;;;;;28.86;46.45;98980.41;5068661;28;20395;-65
2022/07/07 07:25:05;;;;;;;14.00;6.93;;;;;;;28.87;46.65;98982.06;5068795;28;20043;-70
2022/07/07 07:27:32;;;;;;;14.40;7.25;;;;;;;28.87;46.66;98975.78;5065254;28;20080;-65
2022/07/07 07:29:58;;;;;;;8.95;7.05;;;;;;;28.86;46.68;98974.97;5066094;28;20408;-66
2022/07/07 07:32:23;;;;;;;12.30;6.70;;;;;;;28.81;47.06;98983.06;5067273;28;20028;-67
2022/07/07 07:34:49;;;;;;;8.20;7.32;;;;;;;28.76;47.02;98985.72;5065558;28;20151;-67
2022/07/07 07:37:15;;;;;;;9.30;7.22;;;;;;;28.73;47.22;98987.06;5066228;28;20115;-68
2022/07/07 07:39:40;;;;;;;10.77;6.95;;;;;;;28.70;46.66;98986.72;5067927;28;20042;-66
2022/07/07 07:42:06;;;;;;;10.65;7.90;;;;;;;28.68;46.85;98989.69;5069421;28;20499;-67
2022/07/07 07:47:15;;;;;;;11.40;7.60;;;;;;;28.66;46.06;98991.03;5071967;28;20040;-68
2022/07/07 07:49:41;;;;;;;7.85;6.95;;;;;;;28.65;45.62;98990.22;5072375;28;20396;-68
2022/07/07 07:52:06;;;;;;;12.75;7.53;;;;;;;28.65;45.85;98983.94;5060100;28;20033;-68
2022/07/07 07:54:32;;;;;;;8.48;7.10;;;;;;;28.64;46.20;98980.41;5066091;28;20066;-69
2022/07/07 07:56:57;;;;;;;15.77;8.07;;;;;;;28.63;46.00;98989.66;5072134;28;20044;-69
2022/07/07 07:59:23;;;;;;;11.25;7.85;;;;;;;28.60;46.28;98985.50;5072160;28;20539;-68
2022/07/07 08:01:48;;;;;;;11.73;7.68;;;;;;;28.61;46.04;98998.03;5072212;28;20056;-69
2022/07/07 08:04:14;;;;;;;13.57;7.85;;;;;;;28.58;45.80;98986.84;5072489;28;20060;-67
2022/07/07 08:06:39;;;;;;;12.07;7.47;;;;;;;28.57;45.79;98994.22;5071747;28;20499;-68
2022/07/07 08:09:05;;;;;;;8.68;7.45;;;;;;;28.54;46.23;98999.31;5072280;28;20028;-66
2022/07/07 08:11:30;;;;;;;10.20;7.68;;;;;;;28.56;45.92;98987.13;5072066;28;20033;-65
2022/07/07 08:13:56;;;;;;;11.73;7.90;;;;;;;28.55;45.56;98996.34;5072219;28;20032;-67
2022/07/07 08:16:21;;;;;;;17.15;8.18;;;;;;;28.56;45.96;98999.88;5071690;28;20064;-66
2022/07/07 08:18:46;;;;;;;9.45;7.93;;;;;;;28.55;45.93;98995.50;5071879;28;20052;-68
2022/07/07 08:21:12;;;;;;;10.80;8.07;;;;;;;28.54;45.94;98996.59;5072007;28;20066;-67
2022/07/07 08:23:37;;;;;;;8.90;8.00;;;;;;;28.53;45.88;98997.69;5071892;28;20040;-68
2022/07/07 08:26:03;;;;;;;10.00;7.18;;;;;;;28.52;45.41;99002.28;5071734;28;20400;-67
2022/07/07 08:28:28;;;;;;;11.45;8.10;;;;;;;28.52;45.73;99012.38;5071550;28;20036;-68
2022/07/07 08:30:54;;;;;;;12.60;7.72;;;;;;;28.50;45.31;99011.78;5069680;28;20052;-67
2022/07/07 08:33:20;;;;;;;12.55;8.77;;;;;;;28.50;45.59;99006.34;5071559;28;20471;-68
2022/07/07 08:35:45;;;;;;;11.68;8.38;;;;;;;28.48;45.06;99014.75;5072259;28;20082;-68
2022/07/07 08:38:11;;;;;;;12.00;8.23;;;;;;;28.50;45.48;99011.78;5071584;28;20459;-68
2022/07/07 08:40:37;;;;;;;11.77;7.75;;;;;;;28.48;45.20;99009.31;5071843;28;20033;-67
2022/07/07 08:43:03;;;;;;;14.07;8.30;;;;;;;28.49;45.14;99010.97;5072357;28;20036;-66
2022/07/07 08:45:28;;;;;;;10.90;8.95;;;;;;;28.50;45.16;99022.69;5075046;28;20044;-67
2022/07/07 08:47:54;;;;;;;10.43;8.02;;;;;;;28.50;44.92;99011.78;5074878;28;20119;-66
2022/07/07 08:50:21;;;;;;;8.00;7.20;;;;;;;28.50;44.86;99009.88;5075348;28;20033;-67
2022/07/07 08:52:52;;;;;;;8.80;7.70;;;;;;;28.51;44.69;98997.94;5074982;28;20115;-67
2022/07/07 08:55:19;;;;;;;;;;;;;;;28.44;45.37;99008.19;5075519;28;20047;-67
2022/07/07 08:57:45;;;;;;;8.85;7.50;;;;;;;28.45;45.27;99010.66;5074959;28;19916;-67
2022/07/07 09:00:11;;;;;;;11.70;8.45;;;;;;;28.50;45.16;99009.06;5074957;28;20051;-68
2022/07/07 09:02:36;;;;;;;9.32;8.25;;;;;;;28.52;45.16;99007.75;5072722;28;20102;-65
2022/07/07 09:05:03;;;;;;;12.45;8.80;;;;;;;28.54;44.80;99004.75;5057313;28;20045;-66
2022/07/07 09:07:48;;;;;;;11.10;7.57;;;;;;;28.55;44.74;99001.78;5054909;28;20033;-68
2022/07/07 09:10:31;;;;;;;9.95;8.05;;;;;;;28.54;44.81;98999.31;5054832;28;20052;-67
2022/07/07 09:12:56;;;;;;;9.13;8.00;;;;;;;28.52;45.08;98996.03;5054535;28;20085;-67
2022/07/07 09:15:22;;;;;;;9.73;8.38;;;;;;;28.52;44.84;98988.69;5054906;28;20029;-67
2022/07/07 09:17:47;;;;;;;9.70;7.63;;;;;;;28.52;44.92;99007.75;5054459;28;20037;-68
2022/07/07 09:20:13;;;;;;;11.38;7.45;;;;;;;28.54;45.07;98996.59;5055050;28;20036;-68
2022/07/07 09:22:44;;;;;;;10.48;7.70;;;;;;;28.58;44.85;99000.47;5054603;28;20040;-68
2022/07/07 09:25:10;;;;;;;9.30;8.20;;;;;;;28.60;45.18;98999.13;5054730;28;20029;-68
2022/07/07 09:27:49;;;;;;;10.35;8.10;;;;;;;28.64;45.24;98996.75;5054630;28;20507;-68
2022/07/07 09:30:35;;;;;;;12.10;8.60;;;;;;;28.65;44.99;99008.44;5063083;28;20036;-68
2022/07/07 09:33:07;;;;;;;11.23;8.27;;;;;;;28.65;45.27;99011.16;5074151;28;20119;-67
2022/07/07 09:38:22;;;;;;;9.30;8.23;;;;;;;28.67;45.25;99001.69;5074719;28;20078;-68
2022/07/07 09:41:04;;;;;;;12.20;8.65;;;;;;;28.68;45.31;99003.31;5074199;28;20032;-67
2022/07/07 09:43:46;;;;;;;12.02;8.32;;;;;;;28.68;45.12;99008.75;5073994;28;20036;-67
2022/07/07 09:46:13;;;;;;;9.02;7.97;;;;;;;28.68;44.95;99007.94;5073859;28;20074;-68
2022/07/07 09:48:41;;;;;;;9.50;8.18;;;;;;;28.67;44.95;99000.84;5074221;28;20450;-68
2022/07/07 09:51:14;;;;;;;11.20;7.32;;;;;;;28.69;45.06;99001.41;5074227;28;20032;-68
2022/07/07 09:53:59;;;;;;;9.98;7.57;;;;;;;28.68;45.01;99002.50;5073636;28;20550;-67
2022/07/07 09:56:39;;;;;;;8.82;7.93;;;;;;;28.67;44.84;99003.56;5073055;28;20078;-68
2022/07/07 09:59:10;;;;;;;10.88;8.75;;;;;;;28.65;44.90;98997.53;5073600;28;20483;-68
2022/07/07 10:01:39;;;;;;;13.27;8.30;;;;;;;28.66;44.84;99002.75;5073122;28;20042;-68
2022/07/07 10:04:08;;;;;;;8.93;8.02;;;;;;;28.67;45.01;99014.44;5073410;28;20484;-68
2022/07/07 10:06:36;;;;;;;10.20;8.07;;;;;;;28.66;45.05;99001.91;5073341;28;20037;-68
2022/07/07 10:09:10;;;;;;;8.95;7.88;;;;;;;28.68;45.19;99008.75;5073519;28;20067;-66
2022/07/07 10:11:40;;;;;;;14.00;8.75;;;;;;;28.71;45.47;99010.16;5066926;28;20126;-66
2022/07/07 10:14:31;;;;;;;15.82;9.15;;;;;;;28.74;45.72;99018.66;5073507;28;20064;-66
2022/07/07 10:16:57;;;;;;;9.25;8.35;;;;;;;28.74;45.63;99013.22;5064887;28;20028;-68
2022/07/07 10:19:25;;;;;;;9.20;7.97;;;;;;;28.76;45.47;99018.41;5068400;28;20045;-68
2022/07/07 10:21:54;;;;;;;12.68;8.60;;;;;;;28.77;45.35;99014.59;5053292;28;20032;-70
2022/07/07 10:24:22;;;;;;;8.90;7.88;;;;;;;28.78;45.70;99010.81;5053505;28;20029;-69
2022/07/07 10:26:50;;;;;;;9.95;7.63;;;;;;;28.78;45.63;99018.97;5051838;28;20446;-70
2022/07/07 10:29:16;;;;;;;9.30;8.40;;;;;;;28.77;45.79;99020.88;5053015;28;20033;-67
2022/07/07 10:31:50;;;;;;;10.68;7.53;;;;;;;28.77;45.81;99025.50;5062675;28;20119;-68
2022/07/07 10:34:16;;;;;;;8.70;7.80;;;;;;;28.79;45.37;99017.91;5073368;28;20450;-68
2022/07/07 10:36:51;;;;;;;8.77;7.88;;;;;;;28.78;45.62;99017.09;5072936;28;20044;-67
2022/07/07 10:39:28;;;;;;;10.95;7.47;;;;;;;28.76;45.15;99019.22;5073400;28;20036;-68
2022/07/07 10:42:06;;;;;;;10.48;7.63;;;;;;;28.75;45.46;99022.19;5073140;28;20387;-67
2022/07/07 10:44:37;;;;;;;8.55;7.43;;;;;;;28.74;45.51;99018.66;5073217;28;20434;-67
2022/07/07 10:47:11;;;;;;;9.45;7.50;;;;;;;28.74;44.86;99018.66;5072594;28;20123;-65
2022/07/07 10:49:42;;;;;;;10.05;7.10;;;;;;;28.75;45.59;99022.19;5062049;28;20071;-66
2022/07/07 10:52:12;;;;;;;11.13;7.30;;;;;;;28.74;45.16;99006.97;5070415;28;20048;-68
2022/07/07 10:55:00;;;;;;;7.75;7.05;;;;;;;28.74;44.91;99006.97;5072964;28;20040;-68
2022/07/07 10:57:27;;;;;;;11.68;8.27;;;;;;;28.75;45.34;99011.31;5073011;28;20024;-68
2022/07/07 11:00:05;;;;;;;10.52;7.00;;;;;;;28.76;45.54;99011.06;5072692;28;20032;-67
2022/07/07 11:02:41;;;;;;;9.32;7.35;;;;;;;28.76;45.35;98999.34;5072678;28;20380;-68
2022/07/07 11:05:09;;;;;;;8.52;7.43;;;;;;;28.77;45.44;99012.72;5073196;28;20028;-68
2022/07/07 11:07:35;;;;;;;10.25;7.43;;;;;;;28.76;45.62;99004.78;5071235;28;20036;-68
2022/07/07 11:10:05;;;;;;;9.93;7.43;;;;;;;28.77;45.73;98999.09;5072485;28;20381;-66
2022/07/07 11:12:51;;;;;;;15.48;7.85;;;;;;;28.76;45.72;99007.50;5072398;28;20036;-67
2022/07/07 11:15:30;;;;;;;10.18;8.07;;;;;;;28.77;45.73;99001.81;5072799;28;20036;-68
2022/07/07 11:17:56;;;;;;;9.40;6.88;;;;;;;28.77;45.33;98992.81;5072285;28;20093;-68
2022/07/07 11:20:29;;;;;;;11.40;7.93;;;;;;;28.76;45.62;99000.19;5072378;28;20096;-68
2022/07/07 11:23:10;;;;;;;9.05;8.15;;;;;;;28.75;45.53;99000.41;5072208;28;20039;-68
2022/07/07 11:25:36;;;;;;;9.02;7.78;;;;;;;28.75;45.69;99008.59;5072723;28;20066;-68
2022/07/07 11:28:06;;;;;;;9.05;8.10;;;;;;;28.75;45.42;98997.69;5072147;28;20040;-68
2022/07/07 11:30:32;;;;;;;12.32;7.60;;;;;;;28.76;44.88;99005.63;5072613;28;20067;-67
2022/07/07 11:33:00;;;;;;;11.43;7.78;;;;;;;28.76;44.84;99005.63;5071947;28;20033;-67